EZY98RJ LSGG-EGPH
Flight info
| Callsign | EZY98RJ |
|---|---|
| Flight time | N/A |
| Altitude | 36000 |
| Route | DIPIR T37 IBABA DCT TUTAX DCT OBURO DCT OKRIX DCT CLM DCT KOPOR DCT VESAN DCT RATUK DCT SOVAT L613 HALIF UN590 ABEVI UN601 INPIP |
| Aircraft | A320/M-SDE3FGHIRWY/LB1 |
Departure
| Time | 2026-05-05 13:07 |
|---|---|
| Airport | Geneva International Airport (LSGG) |
Arrival
| Time | N/A |
|---|---|
| Airport | Edinburgh Airport (EGPH) |
| Time | Latitude | Longitude | Altitude | Speed | Heading |
|---|---|---|---|---|---|
| 2026-05-05 12:36 | 46.23530 | 6.11264 | 1399 ft | 0 kts | 135° |
| 2026-05-05 12:54 | 46.23529 | 6.11264 | 1392 ft | 0 kts | 135° |
| 2026-05-05 12:56 | 46.23529 | 6.11266 | 1392 ft | 0 kts | 135° |
| 2026-05-05 12:57 | 46.23561 | 6.11195 | 1394 ft | 0 kts | 67° |
| 2026-05-05 12:57 | 46.23554 | 6.11137 | 1397 ft | 0 kts | 45° |
| 2026-05-05 13:01 | 46.23605 | 6.11155 | 1396 ft | 8 kts | 335° |
| 2026-05-05 13:01 | 46.23654 | 6.11089 | 1394 ft | 10 kts | 315° |
| 2026-05-05 13:01 | 46.23722 | 6.11106 | 1383 ft | 13 kts | 45° |
| 2026-05-05 13:01 | 46.23799 | 6.11219 | 1379 ft | 17 kts | 44° |
| 2026-05-05 13:02 | 46.23880 | 6.11338 | 1377 ft | 17 kts | 45° |
| 2026-05-05 13:02 | 46.23963 | 6.11458 | 1373 ft | 17 kts | 47° |
| 2026-05-05 13:02 | 46.24046 | 6.11582 | 1369 ft | 18 kts | 45° |
| 2026-05-05 13:02 | 46.24089 | 6.11644 | 1368 ft | 0 kts | 46° |
| 2026-05-05 13:03 | 46.24097 | 6.11656 | 1367 ft | 9 kts | 45° |
| 2026-05-05 13:04 | 46.24185 | 6.11786 | 1364 ft | 20 kts | 46° |
| 2026-05-05 13:04 | 46.24281 | 6.11927 | 1362 ft | 19 kts | 46° |
| 2026-05-05 13:04 | 46.24362 | 6.12048 | 1366 ft | 14 kts | 45° |
| 2026-05-05 13:04 | 46.24430 | 6.12145 | 1370 ft | 13 kts | 47° |
| 2026-05-05 13:05 | 46.24507 | 6.12258 | 1372 ft | 24 kts | 45° |
| 2026-05-05 13:05 | 46.24630 | 6.12436 | 1368 ft | 26 kts | 43° |
| 2026-05-05 13:05 | 46.24766 | 6.12636 | 1362 ft | 29 kts | 43° |
| 2026-05-05 13:05 | 46.24907 | 6.12730 | 1366 ft | 18 kts | 7° |
| 2026-05-05 13:06 | 46.24991 | 6.12681 | 1371 ft | 12 kts | 290° |
| 2026-05-05 13:06 | 46.24956 | 6.12583 | 1372 ft | 14 kts | 225° |
| 2026-05-05 13:06 | 46.24745 | 6.12269 | 1372 ft | 87 kts | 224° |
| 2026-05-05 13:06 | 46.24130 | 6.11372 | 1436 ft | 154 kts | 224° |
| 2026-05-05 13:07 | 46.23355 | 6.10227 | 2184 ft | 165 kts | 226° |
| 2026-05-05 13:07 | 46.22548 | 6.09023 | 3090 ft | 167 kts | 224° |
| 2026-05-05 13:07 | 46.21706 | 6.07785 | 3572 ft | 180 kts | 224° |
| 2026-05-05 13:07 | 46.20784 | 6.06439 | 3974 ft | 199 kts | 224° |
| 2026-05-05 13:08 | 46.19768 | 6.04957 | 4496 ft | 216 kts | 224° |
| 2026-05-05 13:08 | 46.18666 | 6.03354 | 5091 ft | 234 kts | 224° |
| 2026-05-05 13:08 | 46.17475 | 6.01621 | 5770 ft | 251 kts | 224° |
| 2026-05-05 13:08 | 46.16246 | 5.99825 | 6623 ft | 257 kts | 224° |
| 2026-05-05 13:09 | 46.15059 | 5.97889 | 7542 ft | 260 kts | 236° |
| 2026-05-05 13:09 | 46.14419 | 5.95430 | 8479 ft | 267 kts | 259° |
| 2026-05-05 13:09 | 46.14517 | 5.92723 | 9367 ft | 278 kts | 281° |
| 2026-05-05 13:09 | 46.15399 | 5.90191 | 10219 ft | 291 kts | 305° |
| 2026-05-05 13:10 | 46.17007 | 5.88341 | 10996 ft | 304 kts | 332° |
| 2026-05-05 13:10 | 46.19066 | 5.87458 | 11703 ft | 316 kts | 343° |
| 2026-05-05 13:10 | 46.21269 | 5.86731 | 12152 ft | 333 kts | 344° |
| 2026-05-05 13:10 | 46.23597 | 5.85974 | 12595 ft | 350 kts | 345° |
| 2026-05-05 13:11 | 46.26009 | 5.85196 | 13195 ft | 359 kts | 345° |
| 2026-05-05 13:11 | 46.28461 | 5.84405 | 13917 ft | 364 kts | 344° |
| 2026-05-05 13:11 | 46.30943 | 5.83596 | 14608 ft | 367 kts | 344° |
| 2026-05-05 13:11 | 46.33447 | 5.82773 | 15309 ft | 371 kts | 344° |
| 2026-05-05 13:12 | 46.35979 | 5.81936 | 15999 ft | 374 kts | 344° |
| 2026-05-05 13:12 | 46.38531 | 5.81087 | 16684 ft | 377 kts | 344° |
| 2026-05-05 13:12 | 46.41061 | 5.80051 | 17351 ft | 378 kts | 335° |
| 2026-05-05 13:12 | 46.43418 | 5.78371 | 18006 ft | 379 kts | 327° |
| 2026-05-05 13:13 | 46.45730 | 5.76493 | 18598 ft | 383 kts | 327° |
| 2026-05-05 13:13 | 46.48065 | 5.74603 | 19158 ft | 386 kts | 327° |
| 2026-05-05 13:13 | 46.50426 | 5.72696 | 19726 ft | 390 kts | 328° |
| 2026-05-05 13:13 | 46.52778 | 5.70798 | 20273 ft | 394 kts | 328° |
| 2026-05-05 13:14 | 46.55189 | 5.68852 | 20831 ft | 398 kts | 328° |
| 2026-05-05 13:14 | 46.57616 | 5.66888 | 21389 ft | 402 kts | 328° |
| 2026-05-05 13:14 | 46.60065 | 5.64898 | 21929 ft | 405 kts | 328° |
| 2026-05-05 13:14 | 46.62536 | 5.62887 | 22463 ft | 409 kts | 328° |
| 2026-05-05 13:15 | 46.65030 | 5.60850 | 23025 ft | 413 kts | 328° |
| 2026-05-05 13:15 | 46.67556 | 5.58781 | 23551 ft | 417 kts | 328° |
| 2026-05-05 13:15 | 46.70102 | 5.56709 | 23998 ft | 421 kts | 328° |
| 2026-05-05 13:15 | 46.72672 | 5.54639 | 24444 ft | 423 kts | 329° |
| 2026-05-05 13:16 | 46.75255 | 5.52565 | 24881 ft | 426 kts | 328° |
| 2026-05-05 13:16 | 46.77842 | 5.50448 | 25310 ft | 429 kts | 328° |
| 2026-05-05 13:16 | 46.80439 | 5.48279 | 25734 ft | 431 kts | 328° |
| 2026-05-05 13:16 | 46.83028 | 5.46042 | 26146 ft | 433 kts | 324° |
| 2026-05-05 13:17 | 46.85385 | 5.43322 | 26554 ft | 432 kts | 314° |
| 2026-05-05 13:17 | 46.87390 | 5.40069 | 26952 ft | 431 kts | 304° |
| 2026-05-05 13:17 | 46.89007 | 5.36381 | 27326 ft | 431 kts | 294° |
| 2026-05-05 13:17 | 46.90197 | 5.32369 | 27692 ft | 430 kts | 287° |
| 2026-05-05 13:18 | 46.91340 | 5.28304 | 28052 ft | 436 kts | 294° |
| 2026-05-05 13:18 | 46.92919 | 5.24485 | 28426 ft | 442 kts | 304° |
| 2026-05-05 13:18 | 46.94934 | 5.21039 | 28776 ft | 448 kts | 314° |
| 2026-05-05 13:18 | 46.97246 | 5.17948 | 29105 ft | 452 kts | 316° |
| 2026-05-05 13:19 | 46.98226 | 5.16658 | 29241 ft | 453 kts | 316° |
| 2026-05-05 13:19 | 46.99206 | 5.15364 | 29379 ft | 454 kts | 316° |
| 2026-05-05 13:20 | 47.01555 | 5.12259 | 29705 ft | 457 kts | 316° |
| 2026-05-05 13:20 | 47.03932 | 5.09108 | 30008 ft | 460 kts | 316° |
| 2026-05-05 13:20 | 47.06313 | 5.05951 | 30274 ft | 462 kts | 316° |
| 2026-05-05 13:20 | 47.08701 | 5.02777 | 30549 ft | 464 kts | 316° |
| 2026-05-05 13:21 | 47.11103 | 4.99574 | 30820 ft | 466 kts | 316° |
| 2026-05-05 13:21 | 47.13503 | 4.96368 | 31098 ft | 468 kts | 316° |
| 2026-05-05 13:21 | 47.15912 | 4.93147 | 31375 ft | 469 kts | 316° |
| 2026-05-05 13:21 | 47.18328 | 4.89918 | 31745 ft | 468 kts | 315° |
| 2026-05-05 13:22 | 47.20732 | 4.86706 | 32139 ft | 466 kts | 315° |
| 2026-05-05 13:22 | 47.23097 | 4.83541 | 32525 ft | 465 kts | 315° |
| 2026-05-05 13:22 | 47.25483 | 4.80343 | 32911 ft | 463 kts | 315° |
| 2026-05-05 13:22 | 47.27864 | 4.77146 | 33302 ft | 462 kts | 315° |
| 2026-05-05 13:23 | 47.30230 | 4.73960 | 33675 ft | 461 kts | 315° |
| 2026-05-05 13:23 | 47.32601 | 4.70763 | 34029 ft | 460 kts | 315° |
| 2026-05-05 13:23 | 47.34956 | 4.67586 | 34330 ft | 459 kts | 315° |
| 2026-05-05 13:23 | 47.37312 | 4.64405 | 34621 ft | 459 kts | 315° |
| 2026-05-05 13:24 | 47.39661 | 4.61225 | 34885 ft | 459 kts | 315° |
| 2026-05-05 13:24 | 47.42014 | 4.58037 | 35142 ft | 458 kts | 315° |
| 2026-05-05 13:24 | 47.44363 | 4.54851 | 35393 ft | 458 kts | 315° |
| 2026-05-05 13:24 | 47.46709 | 4.51672 | 35648 ft | 458 kts | 315° |
| 2026-05-05 13:25 | 47.49061 | 4.48478 | 35813 ft | 458 kts | 315° |
| 2026-05-05 13:25 | 47.51391 | 4.45315 | 35851 ft | 451 kts | 315° |
| 2026-05-05 13:25 | 47.56004 | 4.39044 | 35845 ft | 450 kts | 315° |
| 2026-05-05 13:26 | 47.60601 | 4.32749 | 35842 ft | 450 kts | 315° |
| 2026-05-05 13:26 | 47.65095 | 4.26309 | 35837 ft | 447 kts | 307° |
| 2026-05-05 13:27 | 47.65881 | 4.24867 | 35836 ft | 446 kts | 303° |
| 2026-05-05 13:27 | 47.67378 | 4.21657 | 35833 ft | 445 kts | 301° |
| 2026-05-05 13:28 | 47.67998 | 4.20289 | 35831 ft | 445 kts | 301° |
| 2026-05-05 13:28 | 47.71466 | 4.12658 | 35830 ft | 445 kts | 301° |
| 2026-05-05 13:29 | 47.74924 | 4.05043 | 35827 ft | 445 kts | 301° |
| 2026-05-05 13:29 | 47.78378 | 3.97420 | 35827 ft | 445 kts | 301° |
| 2026-05-05 13:30 | 47.81602 | 3.90291 | 35830 ft | 444 kts | 301° |
| 2026-05-05 13:30 | 47.84262 | 3.84385 | 35819 ft | 444 kts | 301° |
| 2026-05-05 13:31 | 47.87698 | 3.76733 | 35816 ft | 444 kts | 301° |
| 2026-05-05 13:31 | 47.91118 | 3.69063 | 35815 ft | 444 kts | 301° |
| 2026-05-05 13:32 | 47.94625 | 3.61461 | 35821 ft | 445 kts | 308° |
| 2026-05-05 13:32 | 47.96796 | 3.58155 | 35809 ft | 447 kts | 319° |
| 2026-05-05 13:32 | 47.99316 | 3.55430 | 35803 ft | 449 kts | 328° |
| 2026-05-05 13:33 | 48.05006 | 3.51572 | 35803 ft | 450 kts | 337° |
| 2026-05-05 13:33 | 48.10788 | 3.47979 | 35807 ft | 450 kts | 336° |
| 2026-05-05 13:34 | 48.16563 | 3.44358 | 35810 ft | 450 kts | 337° |
| 2026-05-05 13:34 | 48.22301 | 3.40772 | 35812 ft | 449 kts | 337° |
| 2026-05-05 13:35 | 48.28073 | 3.37167 | 35813 ft | 449 kts | 337° |
| 2026-05-05 13:35 | 48.33843 | 3.33556 | 35807 ft | 449 kts | 337° |
| 2026-05-05 13:36 | 48.39609 | 3.29925 | 35808 ft | 449 kts | 337° |
| 2026-05-05 13:36 | 48.45372 | 3.26283 | 35807 ft | 449 kts | 337° |
| 2026-05-05 13:37 | 48.51116 | 3.22649 | 35807 ft | 449 kts | 337° |
| 2026-05-05 13:37 | 48.56905 | 3.18993 | 35807 ft | 449 kts | 337° |
| 2026-05-05 13:38 | 48.60780 | 3.16535 | 35807 ft | 449 kts | 337° |
| 2026-05-05 13:38 | 48.66548 | 3.12855 | 35814 ft | 449 kts | 337° |